Time;durP1;ratioP1;P1;durP2;ratioP2;P2;SDS_P1;SDS_P2;PMS_P1;PMS_P2;Temp;Humidity;BMP_temperature;BMP_pressure;BME280_temperature;BME280_humidity;BME280_pressure;Samples;Min_cycle;Max_cycle;Signal;HPM_P1;HPM_P2
2021/04/29 00:00:56;;;;;;;11.43;7.28;;;10.40;99.90;;;;;;5059460;28;20044;-75
2021/04/29 00:03:24;;;;;;;11.82;7.13;;;10.40;99.90;;;;;;5060316;28;20329;-75
2021/04/29 00:05:53;;;;;;;9.98;5.00;;;10.50;99.90;;;;;;5060163;28;20104;-75
2021/04/29 00:08:22;;;;;;;8.35;3.58;;;10.50;99.90;;;;;;5060213;28;20021;-75
2021/04/29 00:10:50;;;;;;;9.68;4.63;;;10.60;99.90;;;;;;5060473;28;20321;-75
2021/04/29 00:13:17;;;;;;;6.28;4.28;;;10.80;99.90;;;;;;5042337;28;20025;-75
2021/04/29 00:15:47;;;;;;;7.18;4.07;;;11.00;99.90;;;;;;5060598;28;20040;-75
2021/04/29 00:18:19;;;;;;;5.97;3.78;;;11.10;99.60;;;;;;5060710;28;20032;-75
2021/04/29 00:20:47;;;;;;;8.15;4.70;;;11.30;99.40;;;;;;5041948;28;20036;-75
2021/04/29 00:23:16;;;;;;;7.00;4.20;;;11.40;99.10;;;;;;5059691;28;20078;-75
2021/04/29 00:25:44;;;;;;;8.15;4.82;;;11.50;99.00;;;;;;5059228;28;20321;-75
2021/04/29 00:28:11;;;;;;;6.35;4.00;;;11.60;98.90;;;;;;5058941;28;20028;-75
2021/04/29 00:30:39;;;;;;;6.22;4.25;;;11.60;98.80;;;;;;5059419;28;20104;-75
2021/04/29 00:33:06;;;;;;;9.18;4.05;;;11.70;98.80;;;;;;5041266;28;20025;-75
2021/04/29 00:35:34;;;;;;;7.55;4.35;;;11.70;98.80;;;;;;5059012;28;20145;-75
2021/04/29 00:38:02;;;;;;;7.88;3.97;;;11.70;98.80;;;;;;5041001;28;20082;-75
2021/04/29 00:40:30;;;;;;;8.38;4.32;;;11.70;98.70;;;;;;5040980;28;20029;-75
2021/04/29 00:42:58;;;;;;;5.07;3.63;;;11.70;98.70;;;;;;5041439;28;20029;-75
2021/04/29 00:45:25;;;;;;;7.15;4.50;;;11.80;98.80;;;;;;5041656;28;20025;-75
2021/04/29 00:47:53;;;;;;;6.28;3.75;;;11.70;98.90;;;;;;5041770;28;20033;-75
2021/04/29 00:50:25;;;;;;;10.27;4.28;;;11.80;99.10;;;;;;5059754;28;20021;-75
2021/04/29 00:52:53;;;;;;;6.38;4.25;;;11.80;99.40;;;;;;5041881;28;20024;-75
2021/04/29 00:55:21;;;;;;;6.75;4.60;;;11.70;99.70;;;;;;5059622;28;20074;-75
2021/04/29 00:57:49;;;;;;;6.43;4.40;;;11.70;99.90;;;;;;5041676;28;20382;-75
2021/04/29 01:00:18;;;;;;;7.80;4.60;;;11.60;99.90;;;;;;5059200;28;20444;-75
2021/04/29 01:02:55;;;;;;;8.23;4.95;;;11.60;99.90;;;;;;5058683;28;20025;-75
2021/04/29 01:05:28;;;;;;;8.35;4.40;;;11.50;99.90;;;;;;5058443;28;20029;-75
2021/04/29 01:08:10;;;;;;;8.77;4.82;;;11.50;99.90;;;;;;5058183;28;20402;-75
2021/04/29 01:10:47;;;;;;;7.38;4.80;;;11.40;99.90;;;;;;5058135;28;20021;-75
2021/04/29 01:13:24;;;;;;;7.00;4.70;;;11.40;99.90;;;;;;5058025;28;20024;-75
2021/04/29 01:15:52;;;;;;;11.05;5.30;;;11.30;99.90;;;;;;5058031;28;20029;-75
2021/04/29 01:18:25;;;;;;;6.95;4.78;;;11.20;99.90;;;;;;5040227;28;20028;-75
2021/04/29 01:21:04;;;;;;;8.65;5.47;;;11.20;99.90;;;;;;5040118;28;20321;-75
2021/04/29 01:23:58;;;;;;;7.90;5.07;;;11.10;99.90;;;;;;5058115;28;20029;-75
2021/04/29 01:26:32;;;;;;;10.43;6.07;;;11.00;99.90;;;;;;5059510;28;20354;-76
2021/04/29 01:29:09;;;;;;;9.07;5.95;;;10.90;99.90;;;;;;5059134;28;20021;-75
2021/04/29 01:31:39;;;;;;;10.13;5.90;;;10.90;99.90;;;;;;5058089;28;20538;-75
2021/04/29 01:34:10;;;;;;;9.07;5.53;;;10.90;99.90;;;;;;5058924;28;20052;-75
2021/04/29 01:36:38;;;;;;;9.23;5.15;;;10.80;99.90;;;;;;5058519;28;20033;-75
2021/04/29 01:39:08;;;;;;;11.13;5.45;;;10.80;99.90;;;;;;5058691;28;20028;-75
2021/04/29 01:41:40;;;;;;;8.10;5.43;;;10.70;99.90;;;;;;5058446;28;20472;-75
2021/04/29 01:44:09;;;;;;;12.13;6.18;;;10.70;99.90;;;;;;5040082;28;20033;-75
2021/04/29 01:46:37;;;;;;;9.65;5.50;;;10.60;99.90;;;;;;5057390;28;20440;-75
2021/04/29 01:49:06;;;;;;;10.48;6.72;;;10.60;99.90;;;;;;5057546;28;20410;-75
2021/04/29 01:51:35;;;;;;;9.27;5.88;;;10.60;99.90;;;;;;5057409;28;20017;-75
2021/04/29 01:54:04;;;;;;;10.65;7.38;;;10.60;99.90;;;;;;5057319;28;20052;-75
2021/04/29 01:56:32;;;;;;;12.20;7.07;;;10.50;99.90;;;;;;5057290;28;20028;-75
2021/04/29 01:59:00;;;;;;;12.35;7.25;;;10.50;99.90;;;;;;5057650;28;20036;-75
2021/04/29 02:01:28;;;;;;;9.25;6.20;;;10.50;99.90;;;;;;5057110;28;20032;-75
2021/04/29 02:03:57;;;;;;;13.63;6.80;;;10.50;99.90;;;;;;5057703;28;20033;-75
2021/04/29 02:06:25;;;;;;;11.68;6.60;;;10.50;99.90;;;;;;5057563;28;20021;-87
2021/04/29 02:08:53;;;;;;;10.25;6.85;;;10.40;99.90;;;;;;5058460;28;20021;-75
2021/04/29 02:11:21;;;;;;;11.45;7.45;;;10.40;99.90;;;;;;5058082;28;20025;-75
2021/04/29 02:13:50;;;;;;;13.27;6.93;;;10.30;99.90;;;;;;5057643;28;20186;-75
2021/04/29 02:16:37;;;;;;;10.10;6.45;;;10.30;99.90;;;;;;5058057;28;20104;-75
2021/04/29 02:19:09;;;;;;;10.88;6.82;;;10.30;99.90;;;;;;5057928;28;20044;-75
2021/04/29 02:21:43;;;;;;;11.77;7.50;;;10.30;99.90;;;;;;5057656;28;20031;-75
2021/04/29 02:24:12;;;;;;;12.02;6.93;;;10.20;99.90;;;;;;5057666;28;20031;-75
2021/04/29 02:26:40;;;;;;;12.82;7.93;;;10.20;99.90;;;;;;5056735;28;20071;-75
2021/04/29 02:29:09;;;;;;;11.98;7.57;;;10.20;99.90;;;;;;5057050;28;20025;-75
2021/04/29 02:31:38;;;;;;;14.13;7.78;;;10.20;99.90;;;;;;5038998;28;20377;-75
2021/04/29 02:34:06;;;;;;;12.38;8.32;;;10.10;99.90;;;;;;5056704;28;20114;-75
2021/04/29 02:36:35;;;;;;;12.07;7.75;;;10.10;99.90;;;;;;5038818;28;20028;-75
2021/04/29 02:39:07;;;;;;;13.68;8.20;;;10.10;99.90;;;;;;5056743;28;20120;-75
2021/04/29 02:41:35;;;;;;;13.93;8.05;;;10.00;99.90;;;;;;5055969;28;20029;-75
2021/04/29 02:44:04;;;;;;;12.02;7.82;;;10.00;99.90;;;;;;5056321;28;20413;-75
2021/04/29 02:46:32;;;;;;;15.75;9.23;;;10.00;99.90;;;;;;5056936;28;20032;-75
2021/04/29 02:49:00;;;;;;;16.77;9.82;;;9.90;99.90;;;;;;5039564;28;20071;-75
2021/04/29 02:51:29;;;;;;;15.20;9.68;;;9.90;99.90;;;;;;5039492;28;20028;-75
2021/04/29 02:53:57;;;;;;;14.38;9.15;;;9.90;99.90;;;;;;5057332;28;20049;-75
2021/04/29 02:56:25;;;;;;;13.70;9.48;;;9.90;99.90;;;;;;5039586;28;20028;-75
2021/04/29 02:58:52;;;;;;;12.10;8.43;;;9.90;99.90;;;;;;5057281;28;20021;-75
2021/04/29 03:01:19;;;;;;;15.30;9.10;;;9.90;99.90;;;;;;5057490;28;20078;-75
2021/04/29 03:03:47;;;;;;;17.00;9.20;;;9.90;99.90;;;;;;5057170;28;20021;-76
2021/04/29 03:06:15;;;;;;;12.57;7.93;;;9.90;99.90;;;;;;5056589;28;20055;-76
2021/04/29 03:08:43;;;;;;;15.13;9.23;;;9.80;99.90;;;;;;5056783;28;20013;-76
2021/04/29 03:11:10;;;;;;;16.08;9.02;;;9.80;99.90;;;;;;5056464;28;20082;-76
2021/04/29 03:13:38;;;;;;;14.52;8.65;;;9.80;99.90;;;;;;5056367;28;20429;-76
2021/04/29 03:16:06;;;;;;;13.30;9.20;;;9.80;99.90;;;;;;5056337;28;20029;-76
2021/04/29 03:18:34;;;;;;;16.73;9.05;;;9.80;99.90;;;;;;5038496;28;20076;-76
2021/04/29 03:21:02;;;;;;;15.40;10.02;;;9.70;99.90;;;;;;5056274;28;20029;-76
2021/04/29 03:23:29;;;;;;;15.18;10.02;;;9.70;99.90;;;;;;5056600;28;20032;-76
2021/04/29 03:26:00;;;;;;;14.93;9.30;;;9.70;99.90;;;;;;5038376;28;20367;-76
2021/04/29 03:28:29;;;;;;;15.88;9.88;;;9.80;99.90;;;;;;5056768;28;20472;-76
2021/04/29 03:30:57;;;;;;;13.35;8.68;;;9.70;99.90;;;;;;5057506;28;20032;-76
2021/04/29 03:33:25;;;;;;;14.18;9.77;;;9.80;99.90;;;;;;5056911;28;20017;-76
2021/04/29 03:35:52;;;;;;;14.52;9.30;;;9.80;99.90;;;;;;5057381;28;20049;-76
2021/04/29 03:38:20;;;;;;;19.35;9.57;;;9.80;99.90;;;;;;5039410;28;20039;-76
2021/04/29 03:40:48;;;;;;;19.92;10.77;;;9.80;99.90;;;;;;5039189;28;20025;-76
2021/04/29 03:43:15;;;;;;;13.20;8.65;;;9.70;99.90;;;;;;5056826;28;20113;-76
2021/04/29 03:45:43;;;;;;;11.32;7.97;;;9.70;99.90;;;;;;5056625;28;20021;-76
2021/04/29 03:48:11;;;;;;;15.00;8.95;;;9.70;99.90;;;;;;5056006;28;20367;-76
2021/04/29 03:50:39;;;;;;;13.38;8.57;;;9.70;99.90;;;;;;5056047;28;20315;-76
2021/04/29 03:53:07;;;;;;;16.10;8.82;;;9.60;99.90;;;;;;5038499;28;20429;-76
2021/04/29 03:55:36;;;;;;;17.58;9.30;;;9.60;99.90;;;;;;5059830;28;20025;-76
2021/04/29 03:58:05;;;;;;;14.13;8.80;;;9.60;99.90;;;;;;5059623;28;20032;-75
2021/04/29 04:00:32;;;;;;;14.07;8.93;;;9.50;99.90;;;;;;5041746;28;20028;-76
2021/04/29 04:02:59;;;;;;;15.77;10.10;;;9.50;99.90;;;;;;5041757;28;20024;-75
2021/04/29 04:05:27;;;;;;;17.05;11.40;;;9.50;99.90;;;;;;5059520;28;20436;-74
2021/04/29 04:07:54;;;;;;;16.50;10.38;;;9.50;99.90;;;;;;5041746;28;20433;-75
2021/04/29 04:10:21;;;;;;;16.05;10.13;;;9.50;99.90;;;;;;5060435;28;20376;-75
2021/04/29 04:12:49;;;;;;;15.35;9.80;;;9.60;99.90;;;;;;5060188;28;20060;-75
2021/04/29 04:15:17;;;;;;;14.40;9.43;;;9.60;99.90;;;;;;5038802;28;20384;-75
2021/04/29 04:17:45;;;;;;;14.60;9.90;;;9.60;99.90;;;;;;5039253;28;20021;-75
2021/04/29 04:20:13;;;;;;;14.75;10.10;;;9.60;99.90;;;;;;5040070;28;20026;-75
2021/04/29 04:22:41;;;;;;;15.95;10.20;;;9.60;99.90;;;;;;5040211;28;20035;-75
2021/04/29 04:25:09;;;;;;;14.80;10.65;;;9.70;99.90;;;;;;5039943;28;20033;-75
2021/04/29 04:27:37;;;;;;;13.88;9.23;;;9.60;99.90;;;;;;5039348;28;20378;-75
2021/04/29 04:30:06;;;;;;;13.40;9.52;;;9.70;99.90;;;;;;5038698;28;20049;-75
2021/04/29 04:32:33;;;;;;;13.45;9.07;;;9.60;99.90;;;;;;5039078;28;20414;-75
2021/04/29 04:35:04;;;;;;;17.27;10.85;;;9.60;99.90;;;;;;5038861;28;20330;-75
2021/04/29 04:37:32;;;;;;;16.65;10.85;;;9.60;99.90;;;;;;5054350;28;20025;-75
2021/04/29 04:40:00;;;;;;;14.75;10.10;;;9.60;99.90;;;;;;5038822;28;20079;-75
2021/04/29 04:42:28;;;;;;;13.50;9.13;;;9.60;99.90;;;;;;5039141;28;20025;-75
2021/04/29 04:44:56;;;;;;;18.02;11.13;;;9.50;99.90;;;;;;5039199;28;20026;-74
2021/04/29 04:47:25;;;;;;;17.30;11.65;;;9.50;99.90;;;;;;5038945;28;20020;-75
2021/04/29 04:49:52;;;;;;;20.40;11.38;;;9.50;99.90;;;;;;5039417;28;20018;-74
2021/04/29 04:52:21;;;;;;;18.50;11.32;;;9.50;99.90;;;;;;5055036;28;20303;-75
2021/04/29 04:54:50;;;;;;;17.35;10.88;;;9.50;99.90;;;;;;5039444;28;20420;-74
2021/04/29 04:57:18;;;;;;;18.77;11.88;;;9.50;99.90;;;;;;5054944;28;20034;-75
2021/04/29 04:59:45;;;;;;;18.67;11.65;;;9.50;99.90;;;;;;5039734;28;20101;-75
2021/04/29 05:02:13;;;;;;;17.67;10.35;;;9.50;99.90;;;;;;5039803;28;20295;-75
2021/04/29 05:04:40;;;;;;;18.65;10.48;;;9.50;99.90;;;;;;5038526;28;20021;-75
2021/04/29 05:07:10;;;;;;;17.30;10.48;;;9.50;99.90;;;;;;5037843;28;20029;-74
2021/04/29 05:09:38;;;;;;;15.95;10.02;;;9.50;99.90;;;;;;5054085;28;20032;-75
2021/04/29 05:12:05;;;;;;;16.80;11.32;;;9.60;99.90;;;;;;5038348;28;20109;-75
2021/04/29 05:14:34;;;;;;;21.75;10.68;;;9.60;99.90;;;;;;5049824;28;20068;-75
2021/04/29 05:17:02;;;;;;;18.92;11.10;;;9.60;99.90;;;;;;5058084;28;20103;-75
2021/04/29 05:19:29;;;;;;;18.90;11.05;;;9.70;99.90;;;;;;5040227;28;20031;-74
2021/04/29 05:21:57;;;;;;;17.10;10.30;;;9.70;99.90;;;;;;5058005;28;20028;-74
2021/04/29 05:24:25;;;;;;;16.95;10.40;;;9.80;99.90;;;;;;5057876;28;20025;-73
2021/04/29 05:26:52;;;;;;;15.43;10.85;;;9.80;99.90;;;;;;5040034;28;20037;-74
2021/04/29 05:29:20;;;;;;;14.77;9.68;;;9.90;99.90;;;;;;5058578;28;20333;-75
2021/04/29 05:31:47;;;;;;;13.88;9.93;;;9.90;99.90;;;;;;5058758;28;20437;-74
2021/04/29 05:34:15;;;;;;;12.45;9.07;;;9.90;99.90;;;;;;5058601;28;20029;-75
2021/04/29 05:36:43;;;;;;;12.27;8.23;;;10.00;99.90;;;;;;5058675;28;20108;-75
2021/04/29 05:39:12;;;;;;;14.70;9.32;;;10.00;99.90;;;;;;5058543;28;20104;-75
2021/04/29 05:41:41;;;;;;;15.25;8.98;;;10.00;99.90;;;;;;5058550;28;20029;-75
2021/04/29 05:44:08;;;;;;;11.60;8.95;;;10.00;99.90;;;;;;5058754;28;20071;-75
2021/04/29 05:46:37;;;;;;;13.55;8.95;;;10.10;99.90;;;;;;5058394;28;20429;-75
2021/04/29 05:49:04;;;;;;;16.30;9.90;;;10.00;99.90;;;;;;5057692;28;20102;-77
2021/04/29 05:51:32;;;;;;;14.65;9.50;;;10.10;99.90;;;;;;5057528;28;20024;-74
2021/04/29 05:53:59;;;;;;;13.02;9.52;;;10.10;99.90;;;;;;5057405;28;20023;-75
2021/04/29 05:56:28;;;;;;;13.77;9.45;;;10.10;99.90;;;;;;5057364;28;20103;-75
2021/04/29 05:58:55;;;;;;;13.48;8.52;;;10.10;99.90;;;;;;5057693;28;20505;-74
2021/04/29 06:01:23;;;;;;;12.35;8.77;;;10.10;99.90;;;;;;5057703;28;20056;-69
2021/04/29 06:03:51;;;;;;;15.30;10.25;;;10.00;99.90;;;;;;5039609;28;20025;-70
2021/04/29 06:06:19;;;;;;;17.73;11.93;;;10.10;99.90;;;;;;5056964;28;20025;-71
2021/04/29 06:08:47;;;;;;;12.43;8.75;;;10.10;99.90;;;;;;5039379;28;20029;-70
2021/04/29 06:11:14;;;;;;;14.40;9.45;;;10.10;99.90;;;;;;5058212;28;20021;-70
2021/04/29 06:13:44;;;;;;;14.80;9.80;;;10.10;99.90;;;;;;5057428;28;20491;-71
2021/04/29 06:16:14;;;;;;;15.85;10.63;;;10.20;99.90;;;;;;5057952;28;20033;-72
2021/04/29 06:18:44;;;;;;;14.52;9.77;;;10.20;99.90;;;;;;5040053;28;20086;-71
2021/04/29 06:21:12;;;;;;;12.65;9.30;;;10.20;99.90;;;;;;5040170;28;20024;-69
2021/04/29 06:23:40;;;;;;;13.45;8.40;;;10.20;99.90;;;;;;5058230;28;20028;-71
2021/04/29 06:26:08;;;;;;;12.80;8.80;;;10.20;99.90;;;;;;5057800;28;20040;-70
2021/04/29 06:28:36;;;;;;;18.58;9.90;;;10.20;99.90;;;;;;5039895;28;20421;-70
2021/04/29 06:31:03;;;;;;;16.05;9.10;;;10.20;99.90;;;;;;5038977;28;20025;-71
2021/04/29 06:33:31;;;;;;;13.48;8.77;;;10.20;99.90;;;;;;5056694;28;20021;-68
2021/04/29 06:35:59;;;;;;;14.18;9.00;;;10.20;99.90;;;;;;5056828;28;20021;-70
2021/04/29 06:38:26;;;;;;;12.82;8.15;;;10.30;99.90;;;;;;5057090;28;20064;-70
2021/04/29 06:40:54;;;;;;;13.90;8.98;;;10.30;99.90;;;;;;5057079;28;20035;-71
2021/04/29 06:43:22;;;;;;;16.15;10.20;;;10.30;99.90;;;;;;5056450;28;20032;-71
2021/04/29 06:45:49;;;;;;;16.20;9.25;;;10.30;99.90;;;;;;5056622;28;20018;-73
2021/04/29 06:48:16;;;;;;;15.25;9.60;;;10.40;99.90;;;;;;5056814;28;20444;-70
2021/04/29 06:50:44;;;;;;;13.10;8.63;;;10.40;99.90;;;;;;5038888;28;20025;-70
2021/04/29 06:53:12;;;;;;;16.90;8.70;;;10.40;99.90;;;;;;5057208;28;20417;-70
2021/04/29 06:55:40;;;;;;;18.60;9.85;;;10.40;99.90;;;;;;5057482;28;20116;-70
2021/04/29 06:58:09;;;;;;;20.15;10.70;;;10.40;99.90;;;;;;5057520;28;20340;-72
2021/04/29 07:00:36;;;;;;;13.07;8.68;;;10.40;99.90;;;;;;5057697;28;20036;-70
2021/04/29 07:03:04;;;;;;;14.48;9.25;;;10.40;99.90;;;;;;5057815;28;20036;-70
2021/04/29 07:05:32;;;;;;;14.93;8.93;;;10.40;99.90;;;;;;5057544;28;20029;-71
2021/04/29 07:08:00;;;;;;;13.75;8.75;;;10.40;99.90;;;;;;5057340;28;20017;-74
2021/04/29 07:10:28;;;;;;;14.30;8.57;;;10.40;99.90;;;;;;5038873;28;20029;-70
2021/04/29 07:12:56;;;;;;;20.73;9.77;;;10.40;99.90;;;;;;5038502;28;20021;-70
2021/04/29 07:15:23;;;;;;;13.07;9.13;;;10.40;99.90;;;;;;5055876;28;20051;-70
2021/04/29 07:17:57;;;;;;;13.38;9.45;;;10.50;99.90;;;;;;5056340;28;20051;-71
2021/04/29 07:20:25;;;;;;;16.67;10.10;;;10.50;99.90;;;;;;5056697;28;20029;-71
2021/04/29 07:22:52;;;;;;;35.30;19.00;;;10.50;99.90;;;;;;5056084;28;20025;-71
2021/04/29 07:25:23;;;;;;;35.83;20.48;;;10.60;99.90;;;;;;5056779;28;20070;-70
2021/04/29 07:27:51;;;;;;;23.02;13.73;;;10.60;99.90;;;;;;5056218;28;20013;-71
2021/04/29 07:30:20;;;;;;;19.50;12.35;;;10.60;99.90;;;;;;5042272;28;20031;-71
2021/04/29 07:32:47;;;;;;;14.80;9.00;;;10.60;99.90;;;;;;5061670;28;20341;-71
2021/04/29 07:35:15;;;;;;;14.48;9.68;;;10.70;99.90;;;;;;5061087;28;20025;-71
2021/04/29 07:37:42;;;;;;;20.20;9.07;;;10.70;99.90;;;;;;5061022;28;20036;-71
2021/04/29 07:40:11;;;;;;;12.55;8.65;;;10.70;99.90;;;;;;5060784;28;20126;-71
2021/04/29 07:42:39;;;;;;;13.23;8.27;;;10.70;99.90;;;;;;5060807;28;20025;-71
2021/04/29 07:45:07;;;;;;;12.82;8.82;;;10.80;99.90;;;;;;5060542;28;20056;-71
2021/04/29 07:47:35;;;;;;;12.80;8.98;;;10.90;99.90;;;;;;5060727;28;20021;-71
2021/04/29 07:50:04;;;;;;;14.10;8.80;;;11.10;99.90;;;;;;5060495;28;20056;-70
2021/04/29 07:52:32;;;;;;;10.68;7.50;;;11.20;99.90;;;;;;5059567;28;20354;-71
2021/04/29 07:54:59;;;;;;;9.52;7.28;;;11.50;99.90;;;;;;5059514;28;20017;-71
2021/04/29 07:57:27;;;;;;;11.55;7.13;;;11.70;99.90;;;;;;5060109;28;20033;-71
2021/04/29 07:59:55;;;;;;;11.10;7.05;;;12.00;99.90;;;;;;5059756;28;20021;-71
2021/04/29 08:02:23;;;;;;;12.73;8.05;;;12.20;99.90;;;;;;5059418;28;20020;-71
2021/04/29 08:04:51;;;;;;;16.65;7.32;;;12.50;99.90;;;;;;5059895;28;20432;-71
2021/04/29 08:07:18;;;;;;;8.88;6.25;;;12.70;99.90;;;;;;5059204;28;20029;-71
2021/04/29 08:09:47;;;;;;;10.75;7.03;;;12.90;99.90;;;;;;5059229;28;20100;-70
2021/04/29 08:12:15;;;;;;;10.05;7.43;;;13.10;99.90;;;;;;5059841;28;20066;-70
2021/04/29 08:14:43;;;;;;;10.60;7.20;;;13.30;99.90;;;;;;5060539;28;20041;-71
2021/04/29 08:17:11;;;;;;;9.52;7.45;;;13.40;99.90;;;;;;5060487;28;20409;-72
2021/04/29 08:19:39;;;;;;;9.43;7.13;;;13.60;99.90;;;;;;5060496;28;20017;-70
2021/04/29 08:22:06;;;;;;;8.88;6.63;;;13.70;99.90;;;;;;5042499;28;20021;-70
2021/04/29 08:24:34;;;;;;;10.65;7.25;;;13.80;99.90;;;;;;5060851;28;20083;-70
2021/04/29 08:27:02;;;;;;;11.68;7.05;;;13.90;99.90;;;;;;5060474;28;20032;-71
2021/04/29 08:29:30;;;;;;;9.77;7.25;;;13.90;99.90;;;;;;5060277;28;20031;-71
2021/04/29 08:31:59;;;;;;;10.32;6.32;;;14.00;99.90;;;;;;5059676;28;20021;-71
2021/04/29 08:34:27;;;;;;;10.20;6.57;;;14.10;99.90;;;;;;5059279;28;20052;-71
2021/04/29 08:36:55;;;;;;;10.25;5.93;;;14.00;99.90;;;;;;5059504;28;20103;-71
2021/04/29 08:39:23;;;;;;;11.93;6.38;;;14.00;99.90;;;;;;5058326;28;20036;-73
2021/04/29 08:41:52;;;;;;;9.73;6.72;;;13.80;99.90;;;;;;5058305;28;20367;-72
2021/04/29 08:44:20;;;;;;;10.60;6.28;;;13.60;99.90;;;;;;5059628;28;20028;-72
2021/04/29 08:46:48;;;;;;;11.07;7.30;;;13.40;99.90;;;;;;5059330;28;20028;-72
2021/04/29 08:49:16;;;;;;;9.60;5.70;;;13.20;99.90;;;;;;5058826;28;20025;-72
2021/04/29 08:51:45;;;;;;;11.70;6.65;;;13.10;99.90;;;;;;5059261;28;20024;-72
2021/04/29 08:54:13;;;;;;;10.63;7.80;;;12.90;99.90;;;;;;5059798;28;20424;-73
2021/04/29 08:56:41;;;;;;;10.90;7.10;;;12.70;99.90;;;;;;5041688;28;20025;-75
2021/04/29 08:59:09;;;;;;;14.55;7.65;;;12.50;99.90;;;;;;5059522;28;20017;-71
2021/04/29 09:01:42;;;;;;;12.48;7.53;;;12.40;99.90;;;;;;5059311;28;20326;-71
2021/04/29 09:04:21;;;;;;;11.20;7.10;;;12.20;99.90;;;;;;5059936;28;20048;-71
2021/04/29 09:06:49;;;;;;;10.85;7.03;;;12.10;99.90;;;;;;5059248;28;20032;-71
2021/04/29 09:09:18;;;;;;;12.32;7.97;;;11.90;99.90;;;;;;5059240;28;20032;-71
2021/04/29 09:11:53;;;;;;;10.82;8.45;;;11.80;99.90;;;;;;5059626;28;20086;-71
2021/04/29 09:14:32;;;;;;;13.38;7.68;;;11.80;99.90;;;;;;5058300;28;20076;-71
2021/04/29 09:17:00;;;;;;;13.55;8.40;;;11.80;99.90;;;;;;5058395;28;20033;-71
2021/04/29 09:19:30;;;;;;;13.70;8.82;;;11.90;99.90;;;;;;5058347;28;20052;-71
2021/04/29 09:21:58;;;;;;;10.07;7.10;;;12.10;99.90;;;;;;5040213;28;20062;-70
2021/04/29 09:24:33;;;;;;;15.65;8.10;;;12.40;99.90;;;;;;5058512;28;20052;-72
2021/04/29 09:27:15;;;;;;;14.18;8.35;;;12.60;99.90;;;;;;5058298;28;20060;-70
2021/04/29 09:29:57;;;;;;;12.18;8.73;;;12.80;99.90;;;;;;5057889;28;20021;-70
2021/04/29 09:32:31;;;;;;;12.32;7.88;;;12.90;99.90;;;;;;5058426;28;20413;-70
2021/04/29 09:34:59;;;;;;;11.32;7.28;;;13.00;99.90;;;;;;5059215;28;20377;-71
2021/04/29 09:37:28;;;;;;;11.38;7.57;;;13.00;99.90;;;;;;5040955;28;20044;-71
2021/04/29 09:39:55;;;;;;;11.13;7.88;;;13.00;99.90;;;;;;5041123;28;20032;-71
2021/04/29 09:42:38;;;;;;;13.50;7.88;;;13.10;99.90;;;;;;5058593;28;20041;-71
2021/04/29 09:45:19;;;;;;;11.07;7.65;;;13.20;99.90;;;;;;5058976;28;20028;-71
2021/04/29 09:48:04;;;;;;;11.85;8.00;;;13.40;99.90;;;;;;5040770;28;20041;-71
2021/04/29 09:50:38;;;;;;;17.17;8.90;;;13.60;99.90;;;;;;5058424;28;20079;-71
2021/04/29 09:53:19;;;;;;;14.68;9.40;;;13.80;99.90;;;;;;5057227;28;20021;-71
2021/04/29 09:55:51;;;;;;;18.02;8.95;;;14.00;99.90;;;;;;5057969;28;20189;-71
2021/04/29 09:58:26;;;;;;;13.57;8.73;;;14.10;99.90;;;;;;5057459;28;20025;-71
2021/04/29 10:00:55;;;;;;;11.40;7.93;;;14.20;99.90;;;;;;5057153;28;20021;-71
2021/04/29 10:03:23;;;;;;;13.45;8.18;;;14.30;99.90;;;;;;5039668;28;20025;-71
2021/04/29 10:05:53;;;;;;;10.77;7.68;;;14.50;99.90;;;;;;5057077;28;20029;-72
2021/04/29 10:08:27;;;;;;;13.77;7.88;;;14.70;99.90;;;;;;5057340;28;20028;-71
2021/04/29 10:10:59;;;;;;;12.55;8.10;;;14.70;99.90;;;;;;5057036;28;20052;-71
2021/04/29 10:13:38;;;;;;;12.05;7.40;;;14.80;99.90;;;;;;5040791;28;20021;-71
2021/04/29 10:16:06;;;;;;;12.52;8.40;;;14.80;99.90;;;;;;5018822;28;20030;-71
2021/04/29 10:18:33;;;;;;;14.25;8.48;;;14.90;99.90;;;;;;5018686;28;20361;-71
2021/04/29 10:21:03;;;;;;;14.10;9.10;;;15.10;99.90;;;;;;5018406;28;20295;-71
2021/04/29 10:23:31;;;;;;;11.85;8.80;;;15.30;99.90;;;;;;5018213;28;20329;-71
2021/04/29 10:26:00;;;;;;;11.82;8.82;;;15.40;98.60;;;;;;5016922;28;20025;-71
2021/04/29 10:28:37;;;;;;;18.13;9.82;;;15.40;97.60;;;;;;5018173;28;20026;-71
2021/04/29 10:31:23;;;;;;;;;;;15.30;97.20;;;;;;5018861;28;20404;-73
2021/04/29 10:33:56;;;;;;;21.98;12.65;;;15.10;95.80;;;;;;5017434;28;20313;-71
2021/04/29 10:36:37;;;;;;;20.08;13.70;;;14.80;95.60;;;;;;5017581;28;20060;-72
2021/04/29 10:39:19;;;;;;;23.80;14.07;;;14.60;96.70;;;;;;5017200;28;20033;-72
2021/04/29 10:41:51;;;;;;;19.25;13.68;;;14.30;97.90;;;;;;5017232;28;20446;-71
2021/04/29 10:44:20;;;;;;;21.80;14.63;;;14.20;97.80;;;;;;5017286;28;20018;-71
2021/04/29 10:47:03;;;;;;;23.33;14.40;;;14.10;96.50;;;;;;5015822;28;20037;-71
2021/04/29 10:49:30;;;;;;;18.75;12.38;;;14.20;95.70;;;;;;5016905;28;20492;-71
2021/04/29 10:52:02;;;;;;;17.38;11.95;;;14.40;93.80;;;;;;5017061;28;20433;-71
2021/04/29 10:54:31;;;;;;;17.48;11.55;;;14.50;92.40;;;;;;5017830;28;20026;-71
2021/04/29 10:57:04;;;;;;;13.52;10.25;;;14.70;90.20;;;;;;5018013;28;20022;-72
2021/04/29 10:59:40;;;;;;;25.40;14.40;;;15.10;90.30;;;;;;5018190;28;20025;-72
2021/04/29 11:02:26;;;;;;;22.55;16.15;;;15.30;89.00;;;;;;5017649;28;20427;-72
2021/04/29 11:04:54;;;;;;;;;;;15.40;87.90;;;;;;5017876;28;20038;-72
2021/04/29 11:07:24;;;;;;;24.45;16.30;;;15.50;88.40;;;;;;5016542;28;19905;-72
2021/04/29 11:10:06;;;;;;;25.80;17.13;;;15.60;85.90;;;;;;5017633;28;20363;-73
2021/04/29 11:12:44;;;;;;;29.67;20.17;;;15.70;86.40;;;;;;5016943;28;20026;-73
2021/04/29 11:15:29;;;;;;;28.00;20.77;;;15.80;88.70;;;;;;5044324;28;20344;-73
2021/04/29 11:18:11;;;;;;;28.55;19.30;;;15.90;88.30;;;;;;5056221;28;20025;-73
2021/04/29 11:20:53;;;;;;;29.08;20.02;;;16.00;86.20;;;;;;5056315;28;20429;-73
2021/04/29 11:23:27;;;;;;;25.48;17.58;;;16.10;82.40;;;;;;5056732;28;20025;-73
2021/04/29 11:26:16;;;;;;;23.70;16.30;;;16.30;77.30;;;;;;5056027;28;20033;-73
2021/04/29 11:28:44;;;;;;;23.52;17.27;;;16.30;75.40;;;;;;5056507;28;20021;-73
2021/04/29 11:31:13;;;;;;;29.70;19.05;;;16.30;71.40;;;;;;5056377;28;20024;-73
2021/04/29 11:33:45;;;;;;;29.20;18.67;;;16.30;74.40;;;;;;5056936;28;20056;-72
2021/04/29 11:36:29;;;;;;;27.70;18.42;;;16.40;74.20;;;;;;5056644;28;20025;-71
2021/04/29 11:38:59;;;;;;;29.30;20.17;;;16.40;70.00;;;;;;5057062;28;20021;-72
2021/04/29 11:41:29;;;;;;;30.30;19.40;;;16.50;69.70;;;;;;5056846;28;20029;-72
2021/04/29 11:44:08;;;;;;;30.08;19.98;;;16.60;71.90;;;;;;5057339;28;20047;-72
2021/04/29 11:46:37;;;;;;;29.83;17.10;;;16.70;72.90;;;;;;5056727;28;20029;-72
2021/04/29 11:49:07;;;;;;;29.33;17.02;;;16.70;70.70;;;;;;5057437;28;20029;-72
2021/04/29 11:51:44;;;;;;;27.92;18.45;;;16.60;69.80;;;;;;5055885;28;20305;-72
2021/04/29 11:54:16;;;;;;;25.13;16.17;;;16.50;69.20;;;;;;5055857;28;20021;-72
2021/04/29 11:56:49;;;;;;;29.45;18.15;;;16.50;69.00;;;;;;5055833;28;20044;-72
2021/04/29 11:59:18;;;;;;;21.27;14.93;;;16.60;68.50;;;;;;5056007;28;20083;-72
2021/04/29 12:01:56;;;;;;;19.38;13.07;;;16.60;66.90;;;;;;5055766;28;20492;-72
2021/04/29 12:04:25;;;;;;;20.92;14.90;;;16.50;65.30;;;;;;5055730;28;20108;-72
2021/04/29 12:06:56;;;;;;;24.17;15.20;;;16.40;69.20;;;;;;5055953;28;20333;-72
2021/04/29 12:09:25;;;;;;;22.25;14.23;;;16.30;68.60;;;;;;5056792;28;20025;-72
2021/04/29 12:11:54;;;;;;;21.42;14.82;;;16.30;65.30;;;;;;5057143;28;20310;-71
2021/04/29 12:14:27;;;;;;;24.95;13.57;;;16.20;67.30;;;;;;5057148;28;20037;-73
2021/04/29 12:17:04;;;;;;;21.70;12.93;;;16.10;68.20;;;;;;5060154;28;20029;-73
2021/04/29 12:19:34;;;;;;;23.00;12.88;;;16.20;63.90;;;;;;5060120;28;20306;-73
2021/04/29 12:22:02;;;;;;;28.25;16.60;;;16.10;63.30;;;;;;5059988;28;20028;-73
2021/04/29 12:24:43;;;;;;;24.10;15.18;;;16.00;63.80;;;;;;5042442;28;20028;-72
2021/04/29 12:27:19;;;;;;;22.33;15.75;;;15.90;65.10;;;;;;5059859;28;20029;-72
2021/04/29 12:30:09;;;;;;;32.35;16.90;;;15.90;66.60;;;;;;5059569;28;20043;-73
2021/04/29 12:32:43;;;;;;;34.15;16.65;;;15.90;66.50;;;;;;5058756;28;20124;-73
2021/04/29 12:35:35;;;;;;;24.75;16.33;;;15.70;65.50;;;;;;5059179;28;20104;-73
2021/04/29 12:38:03;;;;;;;25.70;15.73;;;15.70;66.90;;;;;;5058697;28;20021;-72
2021/04/29 12:40:37;;;;;;;24.70;16.25;;;15.90;67.50;;;;;;5058744;28;20314;-72
2021/04/29 12:43:18;;;;;;;25.83;16.00;;;16.00;67.50;;;;;;5059256;28;20044;-72
2021/04/29 12:45:57;;;;;;;28.58;15.52;;;16.10;65.90;;;;;;5041112;28;20036;-72
2021/04/29 12:48:40;;;;;;;22.50;13.90;;;16.00;67.00;;;;;;5058651;28;20100;-74
2021/04/29 12:51:11;;;;;;;20.83;13.30;;;16.00;66.20;;;;;;5041220;28;20440;-73
2021/04/29 12:53:42;;;;;;;19.98;12.25;;;15.90;64.90;;;;;;5059567;28;20380;-73